Time;durP1;ratioP1;P1;durP2;ratioP2;P2;SDS_P1;SDS_P2;PMS_P1;PMS_P2;Temp;Humidity;BMP_temperature;BMP_pressure;BME280_temperature;BME280_humidity;BME280_pressure;Samples;Min_cycle;Max_cycle;Signal;HPM_P1;HPM_P2
2021/10/06 00:00:14;;;;;;;;;4.25;1.50;;;;;12.78;85.11;101223.56;5079058;27;45435;-71
2021/10/06 00:02:40;;;;;;;;;3.00;0.25;;;;;12.77;84.83;101228.81;5077960;27;45493;-73
2021/10/06 00:05:06;;;;;;;;;1.50;1.00;;;;;12.77;84.79;101223.59;5076432;27;45375;-74
2021/10/06 00:07:32;;;;;;;;;1.00;1.00;;;;;12.71;85.37;101229.00;5080408;28;45371;-67
2021/10/06 00:09:57;;;;;;;;;3.50;1.00;;;;;12.69;85.48;101243.84;5080036;27;45251;-67
2021/10/06 00:12:23;;;;;;;;;2.25;1.00;;;;;12.65;85.87;101247.44;5080458;27;45320;-74
2021/10/06 00:14:48;;;;;;;;;5.00;1.25;;;;;12.67;85.60;101243.03;5080197;27;45296;-69
2021/10/06 00:17:13;;;;;;;;;2.25;0.75;;;;;12.67;85.24;101240.41;5080378;27;45302;-69
2021/10/06 00:19:39;;;;;;;;;2.00;1.00;;;;;12.68;85.28;101247.34;5079683;27;45459;-67
2021/10/06 00:22:04;;;;;;;;;1.00;1.00;;;;;12.70;85.29;101249.00;5080185;28;46266;-67
2021/10/06 00:24:29;;;;;;;;;3.75;1.00;;;;;12.74;85.20;101263.66;5079703;27;45331;-61
2021/10/06 00:26:55;;;;;;;;;2.25;1.00;;;;;12.78;84.83;101261.81;5080472;27;45331;-64
2021/10/06 00:29:20;;;;;;;;;3.00;0.00;;;;;12.75;85.25;101254.09;5080170;27;45418;-69
2021/10/06 00:31:46;;;;;;;;;3.00;1.00;;;;;12.73;85.02;101268.94;5079240;27;47248;-70
2021/10/06 00:34:11;;;;;;;;;2.00;1.75;;;;;12.70;85.45;101274.22;5079481;28;45447;-69
2021/10/06 00:36:36;;;;;;;;;3.50;1.25;;;;;12.70;85.38;101282.06;5080004;27;45248;-69
2021/10/06 00:39:03;;;;;;;;;0.25;0.25;;;;;12.70;85.40;101277.69;5078690;27;45602;-68
2021/10/06 00:41:28;;;;;;;;;3.25;0.75;;;;;12.71;85.63;101286.38;5079227;27;46283;-70
2021/10/06 00:43:53;;;;;;;;;1.00;1.00;;;;;12.67;85.64;101282.16;5077630;27;45717;-68
2021/10/06 00:46:19;;;;;;;;;2.25;0.75;;;;;12.66;85.76;101280.44;5076921;27;45445;-67
2021/10/06 00:48:44;;;;;;;;;1.75;0.00;;;;;12.67;85.91;101284.75;5077478;27;45360;-66
2021/10/06 00:51:12;;;;;;;;;1.50;1.00;;;;;12.67;85.62;101285.59;5077415;28;46368;-70
2021/10/06 00:53:38;;;;;;;;;2.75;1.00;;;;;12.71;85.67;101292.44;5076920;27;46233;-69
2021/10/06 00:56:03;;;;;;;;;1.00;1.00;;;;;12.68;85.76;101282.09;5077539;27;45421;-71
2021/10/06 00:58:29;;;;;;;;;3.00;1.00;;;;;12.70;85.82;101292.47;5078529;27;45422;-67
2021/10/06 01:00:55;;;;;;;;;1.25;1.00;;;;;12.67;85.69;101277.78;5079539;28;45169;-74
2021/10/06 01:03:21;;;;;;;;;3.00;0.50;;;;;12.69;85.89;101285.56;5077838;27;45322;-68
2021/10/06 01:05:48;;;;;;;;;3.00;1.00;;;;;12.67;85.60;101283.00;5079386;27;45403;-68
2021/10/06 01:08:14;;;;;;;;;3.00;1.00;;;;;12.63;85.70;101280.53;5079164;27;45532;-68
2021/10/06 01:10:40;;;;;;;;;1.75;1.50;;;;;12.59;86.40;101286.69;5079649;27;46565;-69
2021/10/06 01:13:06;;;;;;;;;1.00;1.00;;;;;12.55;86.46;101287.69;5079461;27;45262;-66
2021/10/06 01:15:31;;;;;;;;;0.00;0.00;;;;;12.53;86.12;101286.88;5079580;27;45274;-66
2021/10/06 01:17:57;;;;;;;;;3.50;2.50;;;;;12.50;86.44;101290.41;5078728;28;45257;-66
2021/10/06 01:20:22;;;;;;;;;2.50;0.25;;;;;12.49;86.66;101288.72;5079221;27;45350;-66
2021/10/06 01:22:48;;;;;;;;;5.50;1.75;;;;;12.47;86.83;101293.97;5077752;27;45448;-66
2021/10/06 01:25:16;;;;;;;;;2.00;1.50;;;;;12.47;87.01;101304.38;5080539;27;45547;-66
2021/10/06 01:27:42;;;;;;;;;1.50;0.25;;;;;12.48;87.00;101310.47;5080462;27;45727;-66
2021/10/06 01:30:11;;;;;;;;;1.25;1.00;;;;;12.48;87.05;101297.44;5080355;28;46112;-66
2021/10/06 01:32:39;;;;;;;;;1.25;1.25;;;;;12.45;87.41;101300.97;5079369;27;45308;-66
2021/10/06 01:35:07;;;;;;;;;4.75;1.00;;;;;12.43;87.38;101304.53;5080668;27;45382;-66
2021/10/06 01:37:34;;;;;;;;;3.25;1.00;;;;;12.44;87.57;101304.47;5082029;27;45310;-66
2021/10/06 01:40:00;;;;;;;;;2.00;1.00;;;;;12.46;87.44;101317.47;5082536;27;46041;-66
2021/10/06 01:42:26;;;;;;;;;1.00;1.00;;;;;12.42;87.49;101316.69;5082798;27;45239;-66
2021/10/06 01:44:51;;;;;;;;;1.00;1.00;;;;;12.40;87.81;101321.06;5082296;27;45422;-66
2021/10/06 01:47:19;;;;;;;;;1.00;1.00;;;;;12.39;87.66;101318.50;5082603;27;45443;-66
2021/10/06 01:49:46;;;;;;;;;1.75;1.00;;;;;12.36;88.16;101314.22;5082728;27;46282;-66
2021/10/06 01:52:15;;;;;;;;;1.00;1.00;;;;;12.35;88.14;101312.50;5082226;27;45812;-65
2021/10/06 01:54:40;;;;;;;;;5.25;2.00;;;;;12.31;88.26;101317.84;5082510;27;45473;-65
2021/10/06 01:57:06;;;;;;;;;0.50;0.50;;;;;12.28;88.50;101316.19;5082465;27;45225;-65
2021/10/06 01:59:32;;;;;;;;;1.00;0.00;;;;;12.25;89.08;101320.63;5082729;27;45307;-72
2021/10/06 02:01:57;;;;;;;;;2.00;0.00;;;;;12.24;89.03;101314.56;5082453;27;45192;-68
2021/10/06 02:04:22;;;;;;;;;1.00;0.00;;;;;12.20;89.24;101323.31;5082672;27;45389;-68
2021/10/06 02:06:48;;;;;;;;;1.75;1.00;;;;;12.15;89.56;101315.63;5082129;27;45251;-68
2021/10/06 02:09:13;;;;;;;;;1.75;1.75;;;;;12.15;89.46;101317.38;5082267;27;46263;-68
2021/10/06 02:11:39;;;;;;;;;0.00;0.00;;;;;12.11;89.29;101314.00;5082357;27;45214;-68
2021/10/06 02:14:04;;;;;;;;;5.00;1.00;;;;;12.11;89.62;101310.53;5082605;27;45300;-67
2021/10/06 02:16:30;;;;;;;;;3.00;0.50;;;;;12.08;89.51;101302.78;5082092;27;45498;-67
2021/10/06 02:18:55;;;;;;;;;2.25;1.00;;;;;12.08;89.13;101311.47;5081916;27;46263;-67
2021/10/06 02:21:20;;;;;;;;;1.25;1.00;;;;;12.10;89.33;101319.25;5082121;27;45447;-67
2021/10/06 02:23:46;;;;;;;;;2.25;1.25;;;;;12.10;89.32;101317.50;5081892;27;45406;-67
2021/10/06 02:26:11;;;;;;;;;1.25;1.25;;;;;12.13;88.85;101326.97;5082028;27;45483;-67
2021/10/06 02:28:36;;;;;;;;;4.00;1.00;;;;;12.11;89.38;101319.19;5082211;27;46012;-67
2021/10/06 02:31:02;;;;;;;;;0.50;0.50;;;;;12.11;89.26;101318.34;5081148;27;45425;-66
2021/10/06 02:33:27;;;;;;;;;3.00;2.00;;;;;12.11;89.70;101324.41;5081731;27;45314;-66
2021/10/06 02:35:52;;;;;;;;;0.25;0.25;;;;;12.05;89.91;101316.75;5082049;27;45317;-66
2021/10/06 02:38:18;;;;;;;;;1.50;1.00;;;;;12.06;89.76;101330.63;5081308;27;46188;-66
2021/10/06 02:40:43;;;;;;;;;0.00;0.00;;;;;12.04;89.80;101322.88;5081844;27;45372;-66
2021/10/06 02:43:08;;;;;;;;;1.00;1.00;;;;;12.01;90.61;101329.88;5080751;28;45346;-66
2021/10/06 02:45:34;;;;;;;;;1.00;1.00;;;;;11.96;90.75;101331.72;5080871;27;45361;-67
2021/10/06 02:47:59;;;;;;;;;3.00;1.00;;;;;11.98;90.57;101337.75;5081809;27;46304;-68
2021/10/06 02:50:25;;;;;;;;;1.00;1.00;;;;;11.94;90.84;101339.59;5081427;27;45248;-67
2021/10/06 02:52:51;;;;;;;;;2.00;1.50;;;;;11.95;90.65;101338.69;5081710;27;45213;-66
2021/10/06 02:55:18;;;;;;;;;2.00;2.00;;;;;11.96;91.06;101344.75;5081318;27;45518;-66
2021/10/06 02:57:44;;;;;;;;;2.75;2.00;;;;;11.94;91.22;101356.97;5081503;27;45424;-67
2021/10/06 03:00:10;;;;;;;;;1.00;1.00;;;;;11.93;91.11;101350.91;5080328;27;45362;-67
2021/10/06 03:02:39;;;;;;;;;3.25;2.00;;;;;11.93;90.95;101353.50;5079319;27;45415;-67
2021/10/06 03:05:06;;;;;;;;;0.00;0.00;;;;;11.88;91.70;101358.81;5079201;27;45837;-81
2021/10/06 03:07:31;;;;;;;;;2.00;0.00;;;;;11.90;91.08;101365.75;5079148;27;45526;-73
2021/10/06 03:09:56;;;;;;;;;1.00;1.00;;;;;11.88;91.44;101361.44;5079311;27;45528;-71
2021/10/06 03:12:22;;;;;;;;;2.00;0.75;;;;;11.87;91.60;101358.88;5079151;27;45633;-70
2021/10/06 03:14:47;;;;;;;;;1.00;1.00;;;;;11.88;91.40;101363.19;5079284;27;45640;-71
2021/10/06 03:17:12;;;;;;;;;1.00;1.00;;;;;11.84;91.98;101370.22;5074578;27;45869;-71
2021/10/06 03:19:38;;;;;;;;;3.75;1.00;;;;;11.86;91.95;101373.63;5076225;28;45319;-73
2021/10/06 03:22:03;;;;;;;;;1.00;1.00;;;;;11.82;92.10;101374.59;5079138;27;45464;-73
2021/10/06 03:24:28;;;;;;;;;1.00;0.00;;;;;11.84;92.23;101375.41;5078551;27;45481;-72
2021/10/06 03:26:54;;;;;;;;;3.25;1.75;;;;;11.80;92.58;101383.31;5078851;28;46162;-71
2021/10/06 03:29:20;;;;;;;;;2.50;1.50;;;;;11.83;92.19;101375.47;5078828;28;45594;-72
2021/10/06 03:31:45;;;;;;;;;0.75;0.75;;;;;11.80;92.21;101375.50;5078172;27;45487;-71
2021/10/06 03:34:10;;;;;;;;;1.00;1.00;;;;;11.82;92.33;101379.81;5080212;27;45362;-69
2021/10/06 03:36:36;;;;;;;;;0.00;0.00;;;;;11.82;92.36;101384.16;5080945;27;45408;-63
2021/10/06 03:39:01;;;;;;;;;1.00;0.00;;;;;11.78;92.63;101378.13;5080452;27;45437;-64
2021/10/06 03:41:27;;;;;;;;;2.25;0.75;;;;;11.82;92.08;101389.38;5081358;28;45310;-63
2021/10/06 03:43:52;;;;;;;;;1.25;0.75;;;;;11.84;92.32;101390.19;5080456;28;45324;-65
2021/10/06 03:46:17;;;;;;;;;2.25;0.75;;;;;11.83;92.09;101388.47;5079468;27;45393;-67
2021/10/06 03:48:44;;;;;;;;;3.00;1.25;;;;;11.84;92.24;101398.84;5080775;27;45404;-65
2021/10/06 03:51:09;;;;;;;;;2.50;0.50;;;;;11.85;91.92;101394.50;5080790;27;45291;-65
2021/10/06 03:53:35;;;;;;;;;2.75;1.25;;;;;11.85;92.19;101402.31;5079927;27;45450;-65
2021/10/06 03:56:00;;;;;;;;;2.50;1.00;;;;;11.87;91.74;101403.13;5080725;27;45401;-67
2021/10/06 03:58:25;;;;;;;;;0.75;0.00;;;;;11.85;91.94;101403.19;5080596;27;45456;-65
2021/10/06 04:00:51;;;;;;;;;2.50;1.75;;;;;11.84;91.81;101403.22;5080898;27;45314;-64
2021/10/06 04:03:16;;;;;;;;;3.00;0.25;;;;;11.83;92.08;101404.97;5080393;27;45523;-68
2021/10/06 04:05:42;;;;;;;;;2.00;1.00;;;;;11.83;91.95;101410.16;5080493;27;46438;-68
2021/10/06 04:08:07;;;;;;;;;1.50;1.50;;;;;11.83;92.14;101412.78;5079952;27;45420;-68
2021/10/06 04:10:34;;;;;;;;;1.00;1.00;;;;;11.83;92.15;101417.13;5071821;27;45465;-68
2021/10/06 04:12:59;;;;;;;;;4.00;1.00;;;;;11.80;91.81;101418.03;5076332;28;45173;-67
2021/10/06 04:15:25;;;;;;;;;3.00;1.50;;;;;11.82;92.04;101424.09;5078985;28;45973;-68
2021/10/06 04:17:50;;;;;;;;;1.00;1.00;;;;;11.81;91.90;101426.69;5079774;27;45266;-67
2021/10/06 04:20:15;;;;;;;;;2.00;2.00;;;;;11.79;92.02;101411.09;5071458;27;45264;-67
2021/10/06 04:22:41;;;;;;;;;2.00;1.00;;;;;11.78;92.01;101425.00;5075621;28;45537;-66
2021/10/06 04:25:09;;;;;;;;;0.00;0.00;;;;;11.77;91.95;101417.19;5080083;27;46072;-66
2021/10/06 04:27:34;;;;;;;;;2.50;1.00;;;;;11.75;92.27;101412.03;5079941;27;45306;-67
2021/10/06 04:30:00;;;;;;;;;1.50;1.00;;;;;11.73;91.84;101411.22;5079700;27;45330;-66
2021/10/06 04:32:25;;;;;;;;;1.00;1.00;;;;;11.71;92.23;101415.59;5078794;27;45406;-65
2021/10/06 04:34:51;;;;;;;;;3.00;1.25;;;;;11.71;92.39;101418.19;5080044;27;46317;-64
2021/10/06 04:37:16;;;;;;;;;0.50;0.50;;;;;11.70;92.20;101413.88;5079745;27;45224;-64
2021/10/06 04:39:42;;;;;;;;;2.00;1.50;;;;;11.70;92.45;101413.88;5079922;28;45235;-66
2021/10/06 04:42:07;;;;;;;;;2.75;0.25;;;;;11.68;92.28;101426.09;5079500;27;45157;-66
2021/10/06 04:44:33;;;;;;;;;2.50;1.00;;;;;11.69;92.41;101430.41;5078916;27;46250;-66
2021/10/06 04:46:58;;;;;;;;;1.50;0.00;;;;;11.69;92.82;101438.22;5079505;27;45213;-66
2021/10/06 04:49:24;;;;;;;;;2.50;0.75;;;;;11.69;92.66;101437.34;5080067;27;45211;-66
2021/10/06 04:51:49;;;;;;;;;0.75;0.75;;;;;11.69;92.50;101443.41;5079351;27;45231;-67
2021/10/06 04:54:15;;;;;;;;;1.00;1.00;;;;;11.69;92.56;101445.16;5079058;27;45788;-67
2021/10/06 04:56:40;;;;;;;;;5.50;4.75;;;;;11.68;92.89;101457.31;5079374;28;45242;-67
2021/10/06 04:59:06;;;;;;;;;2.50;1.75;;;;;11.70;92.85;101455.53;5081771;28;45395;-67
2021/10/06 05:01:31;;;;;;;;;3.75;2.00;;;;;11.72;92.58;101452.91;5083278;27;45418;-67
2021/10/06 05:03:56;;;;;;;;;4.00;2.25;;;;;11.72;92.70;101456.38;5082644;27;45417;-68
2021/10/06 05:06:22;;;;;;;;;2.00;2.00;;;;;11.73;92.65;101460.69;5082594;27;45409;-65
2021/10/06 05:08:47;;;;;;;;;1.50;1.50;;;;;11.71;92.95;101464.22;5083112;27;45389;-66
2021/10/06 05:11:13;;;;;;;;;1.00;1.00;;;;;11.72;92.88;101460.72;5081782;27;45358;-65
2021/10/06 05:13:38;;;;;;;;;2.75;0.75;;;;;11.71;93.36;101469.41;5082840;27;45367;-65
2021/10/06 05:16:04;;;;;;;;;2.50;2.00;;;;;11.70;92.82;101465.09;5082594;27;45289;-65
2021/10/06 05:18:29;;;;;;;;;4.00;1.75;;;;;11.68;93.01;101459.06;5080961;28;45419;-65
2021/10/06 05:20:55;;;;;;;;;3.25;1.00;;;;;11.69;93.15;101474.66;5081883;27;45538;-65
2021/10/06 05:23:21;;;;;;;;;1.00;1.00;;;;;11.73;93.25;101478.06;5080900;27;46830;-66
2021/10/06 05:25:46;;;;;;;;;2.00;1.00;;;;;11.71;93.17;101475.47;5081218;27;45519;-65
2021/10/06 05:28:12;;;;;;;;;5.50;4.00;;;;;11.70;92.80;101475.50;5082048;27;45390;-66
2021/10/06 05:30:37;;;;;;;;;2.50;0.50;;;;;11.73;93.12;101491.06;5081885;27;45585;-65
2021/10/06 05:33:02;;;;;;;;;3.00;1.00;;;;;11.73;93.01;101489.31;5081036;27;46322;-66
2021/10/06 05:35:28;;;;;;;;;3.25;2.00;;;;;11.72;93.06;101495.41;5082609;27;45358;-66
2021/10/06 05:37:53;;;;;;;;;3.00;1.00;;;;;11.75;92.87;101495.34;5081915;27;45393;-65
2021/10/06 05:40:18;;;;;;;;;1.25;1.25;;;;;11.76;93.17;101502.28;5082179;27;45223;-66
2021/10/06 05:42:44;;;;;;;;;2.00;2.00;;;;;11.78;92.90;101504.84;5082416;27;45897;-66
2021/10/06 05:45:10;;;;;;;;;5.75;1.75;;;;;11.77;92.56;101509.19;5081747;27;45433;-65
2021/10/06 05:47:35;;;;;;;;;2.75;2.75;;;;;11.76;92.67;101515.28;5082439;27;45306;-65
2021/10/06 05:50:01;;;;;;;;;4.00;3.00;;;;;11.75;92.72;101515.34;5082103;27;45290;-65
2021/10/06 05:52:26;;;;;;;;;2.25;1.00;;;;;11.72;93.09;101516.25;5080282;27;45390;-66
2021/10/06 05:54:52;;;;;;;;;4.00;1.00;;;;;11.75;92.79;101521.41;5081298;27;45457;-65
2021/10/06 05:57:17;;;;;;;;;1.50;1.00;;;;;11.75;93.01;101515.34;5081020;28;45861;-65
2021/10/06 05:59:43;;;;;;;;;1.00;1.00;;;;;11.74;92.85;101524.03;5081335;27;45502;-65
2021/10/06 06:02:08;;;;;;;;;2.25;2.25;;;;;11.72;93.13;101524.06;5080756;27;45929;-64
2021/10/06 06:04:33;;;;;;;;;2.25;1.75;;;;;11.72;92.64;101524.06;5080950;27;45244;-65
2021/10/06 06:06:59;;;;;;;;;3.75;2.00;;;;;11.75;92.77;101520.53;5080832;27;45336;-65
2021/10/06 06:09:24;;;;;;;;;4.50;2.75;;;;;11.77;92.68;101511.81;5080425;27;45339;-65
2021/10/06 06:11:51;;;;;;;;;1.00;1.00;;;;;11.76;93.14;101523.09;5080665;27;45366;-65
2021/10/06 06:14:17;;;;;;;;;2.50;2.50;;;;;11.78;92.82;101523.97;5080784;28;45761;-65
2021/10/06 06:16:43;;;;;;;;;1.00;1.00;;;;;11.79;92.45;101523.06;5080420;27;45239;-65
2021/10/06 06:19:08;;;;;;;;;1.00;1.00;;;;;11.81;92.64;101529.16;5080232;27;45252;-65
2021/10/06 06:21:33;;;;;;;;;3.00;1.00;;;;;11.85;92.41;101524.72;5080468;27;46163;-66
2021/10/06 06:23:59;;;;;;;;;1.75;1.00;;;;;11.86;92.27;101531.66;5080223;27;45226;-66
2021/10/06 06:26:24;;;;;;;;;2.00;1.00;;;;;11.85;92.57;101541.22;5080012;27;45207;-73
2021/10/06 06:28:49;;;;;;;;;7.25;3.00;;;;;11.88;92.28;101545.50;5080790;27;45255;-72
2021/10/06 06:31:17;;;;;;;;;3.00;1.50;;;;;11.92;92.21;101551.50;5078933;28;45430;-66
2021/10/06 06:33:43;;;;;;;;;3.00;1.75;;;;;11.95;91.78;101547.06;5079966;27;45666;-64
2021/10/06 06:36:09;;;;;;;;;3.00;1.50;;;;;11.98;91.97;101552.22;5080252;27;45406;-64
2021/10/06 06:38:35;;;;;;;;;4.75;2.25;;;;;11.99;91.60;101546.13;5079809;27;45444;-63
2021/10/06 06:41:01;;;;;;;;;3.75;2.00;;;;;12.00;91.44;101547.84;5080076;27;47021;-65
2021/10/06 06:43:26;;;;;;;;;5.00;3.75;;;;;12.05;91.40;101545.16;5080135;27;45203;-66
2021/10/06 06:45:52;;;;;;;;;7.00;3.00;;;;;12.10;91.40;101551.97;5078765;27;46631;-65
2021/10/06 06:48:17;;;;;;;;;3.25;2.50;;;;;12.15;91.08;101557.94;5075032;27;45552;-68
2021/10/06 06:50:44;;;;;;;;;3.75;3.00;;;;;12.19;90.57;101551.78;5029257;27;1195594;-67
2021/10/06 06:53:10;;;;;;;;;5.00;3.00;;;;;12.19;90.47;101562.19;5072083;28;45290;-71
2021/10/06 06:55:35;;;;;;;;;3.75;3.75;;;;;12.21;90.73;101564.78;5078683;28;45351;-72
2021/10/06 06:58:00;;;;;;;;;8.50;4.25;;;;;12.27;90.48;101577.69;5081505;27;45194;-70
2021/10/06 07:00:26;;;;;;;;;9.25;4.00;;;;;12.26;90.31;101575.13;5080776;27;45639;-71
2021/10/06 07:02:52;;;;;;;;;8.25;4.00;;;;;12.28;90.72;101571.59;5081306;27;45298;-70
2021/10/06 07:05:18;;;;;;;;;5.25;2.25;;;;;12.33;89.40;101580.16;5080781;27;45370;-67
2021/10/06 07:07:44;;;;;;;;;7.25;3.00;;;;;12.37;89.82;101587.03;5080576;27;45318;-67
2021/10/06 07:10:09;;;;;;;;;10.75;4.00;;;;;12.47;90.10;101591.16;5080610;27;47250;-69
2021/10/06 07:12:35;;;;;;;;;0.00;0.00;;;;;12.47;89.65;101591.16;5080709;27;45366;-69
2021/10/06 07:15:00;;;;;;;;;5.50;4.25;;;;;12.61;89.14;101603.00;5080726;27;45425;-72
2021/10/06 07:17:26;;;;;;;;;9.75;5.75;;;;;12.67;88.74;101606.38;5080758;27;45294;-68
2021/10/06 07:19:51;;;;;;;;;1.00;1.00;;;;;12.73;88.24;101603.63;5076488;28;47379;-68
2021/10/06 07:22:18;;;;;;;;;4.00;2.00;;;;;12.80;87.52;101607.78;5080282;27;45259;-71
2021/10/06 07:24:44;;;;;;;;;7.25;4.25;;;;;12.87;87.47;101611.13;5080441;27;45371;-71
2021/10/06 07:27:10;;;;;;;;;7.00;5.00;;;;;12.94;87.38;101612.69;5095774;27;45516;-68
2021/10/06 07:29:37;;;;;;;;;3.00;1.50;;;;;13.00;86.67;101604.72;5078923;27;45541;-73
2021/10/06 07:32:03;;;;;;;;;7.25;3.50;;;;;13.04;86.71;101605.53;5078989;27;45464;-71
2021/10/06 07:34:28;;;;;;;;;9.00;4.75;;;;;13.12;86.78;101610.56;5079783;27;45473;-70
2021/10/06 07:36:54;;;;;;;;;9.00;5.75;;;;;13.13;85.57;101609.66;5080465;27;45302;-70
2021/10/06 07:39:19;;;;;;;;;5.00;4.50;;;;;13.23;86.28;101606.84;5079886;28;46181;-74
2021/10/06 07:41:46;;;;;;;;;6.00;4.00;;;;;13.34;85.47;101610.00;5080685;27;45310;-71
2021/10/06 07:44:11;;;;;;;;;3.75;3.25;;;;;13.47;84.98;101610.56;5078272;28;45504;-70
2021/10/06 07:46:36;;;;;;;;;2.00;1.00;;;;;13.55;84.17;101611.22;5080630;28;45211;-66
2021/10/06 07:49:02;;;;;;;;;5.25;4.00;;;;;13.65;84.23;101624.91;5080106;27;45392;-73
2021/10/06 07:51:28;;;;;;;;;5.50;4.00;;;;;13.74;83.04;101623.81;5079896;27;45252;-65
2021/10/06 07:53:53;;;;;;;;;7.00;4.25;;;;;13.85;83.36;101629.63;5079735;28;45434;-74
2021/10/06 07:56:20;;;;;;;;;4.50;2.00;;;;;13.92;83.52;101632.00;5080452;27;45424;-76
2021/10/06 07:58:46;;;;;;;;;5.50;3.25;;;;;13.99;82.72;101633.56;5079658;27;46354;-79
2021/10/06 08:01:11;;;;;;;;;3.00;3.00;;;;;14.03;81.58;101634.34;5079948;27;45315;-72
2021/10/06 08:03:37;;;;;;;;;4.25;2.50;;;;;14.11;82.76;101639.34;5080106;27;45413;-77
2021/10/06 08:06:02;;;;;;;;;5.25;3.00;;;;;14.20;81.24;101645.16;5080091;27;45341;-69
2021/10/06 08:08:28;;;;;;;;;6.75;2.25;;;;;14.30;82.19;101645.78;5079370;28;45970;-64
2021/10/06 08:10:58;;;;;;;;;6.75;2.00;;;;;14.37;80.14;101647.31;5079960;27;45362;-68
2021/10/06 08:13:24;;;;;;;;;0.50;0.50;;;;;14.38;78.82;101653.41;5073446;27;45447;-66
2021/10/06 08:15:51;;;;;;;;;5.00;3.00;;;;;14.44;79.87;101655.88;5075018;28;45865;-77
2021/10/06 08:18:19;;;;;;;;;5.25;3.00;;;;;14.53;79.13;101668.69;5078175;28;46394;-66
2021/10/06 08:20:45;;;;;;;;;4.00;3.75;;;;;14.56;79.01;101660.75;5079566;27;45632;-63
2021/10/06 08:23:10;;;;;;;;;4.00;2.50;;;;;14.64;78.94;101664.00;5064601;27;45347;-64
2021/10/06 08:25:36;;;;;;;;;17.00;15.00;;;;;14.68;78.69;101652.53;5079594;27;45411;-65
2021/10/06 08:28:02;;;;;;;;;10.25;8.50;;;;;14.65;77.08;101650.03;5079195;27;45298;-64
2021/10/06 08:30:28;;;;;;;;;4.00;2.25;;;;;14.74;77.68;101660.19;5079333;27;45273;-63
2021/10/06 08:32:54;;;;;;;;;11.50;5.50;;;;;14.80;76.78;101662.63;5078008;28;45219;-60
2021/10/06 08:35:19;;;;;;;;;4.75;2.00;;;;;14.88;77.08;101665.88;5079807;28;45240;-63
2021/10/06 08:37:45;;;;;;;;;5.00;3.25;;;;;14.96;76.80;101657.78;5078683;27;46069;-69
2021/10/06 08:40:10;;;;;;;;;4.00;3.00;;;;;15.04;76.75;101662.81;5079255;27;45474;-62
2021/10/06 08:42:36;;;;;;;;;8.25;5.00;;;;;15.13;77.30;101660.75;5079342;27;46564;-63
2021/10/06 08:45:08;;;;;;;;;3.00;3.00;;;;;15.23;76.44;101661.31;5077092;27;45293;-61
2021/10/06 08:47:40;;;;;;;;;3.50;2.50;;;;;15.32;75.10;101662.78;5079208;27;45396;-62
2021/10/06 08:50:09;;;;;;;;;4.50;2.00;;;;;15.33;75.30;101651.38;5079115;27;45326;-62
2021/10/06 08:52:35;;;;;;;;;5.50;3.00;;;;;15.43;75.27;101664.16;5078811;27;45276;-67
2021/10/06 08:55:01;;;;;;;;;5.50;3.00;;;;;15.45;74.97;101666.72;5078695;28;45370;-61
2021/10/06 08:57:27;;;;;;;;;3.25;3.00;;;;;15.49;73.57;101666.56;5077888;28;46115;-62
2021/10/06 08:59:52;;;;;;;;;6.00;3.50;;;;;15.53;73.55;101676.03;5079182;27;45357;-62
2021/10/06 09:02:18;;;;;;;;;2.50;1.00;;;;;15.60;73.89;101681.09;5079584;27;45475;-62
2021/10/06 09:04:43;;;;;;;;;5.25;4.00;;;;;15.67;74.13;101680.84;5079062;27;45368;-61
2021/10/06 09:07:09;;;;;;;;;10.75;5.00;;;;;15.69;72.63;101686.88;5077350;27;46250;-60
2021/10/06 09:09:37;;;;;;;;;4.00;2.50;;;;;15.79;72.64;101688.28;5078902;27;45376;-75
2021/10/06 09:12:16;;;;;;;;;1.00;1.00;;;;;15.89;72.47;101680.13;5079701;27;45267;-64
2021/10/06 09:14:44;;;;;;;;;8.50;4.25;;;;;15.98;71.65;101690.25;5079199;27;45358;-60
2021/10/06 09:17:12;;;;;;;;;4.25;2.00;;;;;16.08;71.91;101684.66;5079075;27;46162;-64
2021/10/06 09:19:45;;;;;;;;;4.75;2.00;;;;;16.10;70.55;101687.22;5078715;27;45259;-61
2021/10/06 09:22:16;;;;;;;;;3.25;2.50;;;;;16.13;70.30;101685.34;5079289;27;45298;-59
2021/10/06 09:24:53;;;;;;;;;4.75;2.50;;;;;16.12;69.50;101694.13;5079012;27;45437;-65
2021/10/06 09:27:21;;;;;;;;;3.00;3.00;;;;;16.24;71.12;101697.25;5078965;27;45481;-64
2021/10/06 09:29:49;;;;;;;;;3.25;2.25;;;;;16.32;69.46;101703.91;5078710;27;45223;-66
2021/10/06 09:32:22;;;;;;;;;6.00;3.75;;;;;16.39;70.04;101704.53;5078187;27;45235;-63
2021/10/06 09:35:08;;;;;;;;;3.75;2.00;;;;;16.51;68.93;101698.84;5065887;28;45271;-64
2021/10/06 09:37:36;;;;;;;;;3.25;3.00;;;;;16.62;68.89;101708.97;5078352;27;46297;-69
2021/10/06 09:40:03;;;;;;;;;5.50;2.00;;;;;16.69;68.02;101695.56;5072469;27;45312;-62
2021/10/06 09:42:28;;;;;;;;;3.75;3.00;;;;;16.76;67.68;101697.97;5077477;27;45352;-62
2021/10/06 09:44:57;;;;;;;;;5.00;3.00;;;;;16.90;67.24;101698.31;5081070;27;45380;-65
2021/10/06 09:47:24;;;;;;;;;1.75;1.75;;;;;17.00;66.72;101691.75;5081784;27;47274;-64
2021/10/06 09:49:55;;;;;;;;;4.00;2.25;;;;;17.27;66.27;101710.84;5082194;27;45383;-65
2021/10/06 09:52:25;;;;;;;;;2.75;1.00;;;;;17.52;64.54;101710.72;5070270;27;45906;-68
2021/10/06 09:54:55;;;;;;;;;2.00;2.00;;;;;18.44;62.31;101713.78;5077771;28;45371;-64
2021/10/06 09:57:41;;;;;;;;;1.50;1.50;;;;;19.50;57.83;101707.06;5068698;27;46534;-65
2021/10/06 10:00:07;;;;;;;;;6.50;2.75;;;;;19.42;58.39;101714.47;5065720;27;45670;-65
2021/10/06 10:02:34;;;;;;;;;3.75;2.50;;;;;19.11;58.29;101715.97;5070523;28;45252;-63
2021/10/06 10:05:00;;;;;;;;;2.00;1.25;;;;;19.06;60.79;101709.22;5075026;27;45351;-61
2021/10/06 10:07:26;;;;;;;;;4.00;2.75;;;;;19.60;57.88;101703.06;5068360;28;46203;-64
2021/10/06 10:09:52;;;;;;;;;3.25;2.75;;;;;20.28;59.13;101711.91;5077676;28;45650;-66
2021/10/06 10:12:20;;;;;;;;;5.75;3.75;;;;;20.46;55.97;101710.09;5081342;27;45330;-63
2021/10/06 10:14:46;;;;;;;;;2.00;2.00;;;;;20.38;53.65;101712.25;5081311;27;45354;-64
2021/10/06 10:17:11;;;;;;;;;3.75;3.00;;;;;20.32;54.21;101716.06;5081267;27;46621;-65
2021/10/06 10:19:37;;;;;;;;;3.25;3.25;;;;;20.01;54.01;101724.72;5080580;27;45444;-63
2021/10/06 10:22:05;;;;;;;;;2.00;2.00;;;;;19.61;54.39;101725.00;5080752;28;45259;-64
2021/10/06 10:24:31;;;;;;;;;4.25;2.50;;;;;19.33;55.02;101736.03;5079196;27;45234;-63
2021/10/06 10:27:08;;;;;;;;;5.75;2.00;;;;;19.00;56.16;101735.84;5081163;27;45370;-63
2021/10/06 10:30:05;;;;;;;;;2.75;2.75;;;;;18.88;55.89;101749.59;5080999;28;45336;-63
2021/10/06 10:32:45;;;;;;;;;3.50;1.50;;;;;18.80;54.89;101740.25;5077013;28;45293;-61
2021/10/06 10:35:15;;;;;;;;;3.00;3.00;;;;;18.53;54.12;101752.84;5081005;27;45575;-62
2021/10/06 10:37:49;;;;;;;;;2.25;2.25;;;;;19.82;51.42;101750.31;5080360;27;46185;-62
2021/10/06 10:40:32;;;;;;;;;3.75;0.50;;;;;19.79;50.25;101739.94;5076914;27;45541;-62
2021/10/06 10:43:08;;;;;;;;;4.50;2.25;;;;;19.43;51.83;101745.22;5069178;28;45334;-65
2021/10/06 10:45:36;;;;;;;;;5.00;2.00;;;;;19.73;52.08;101743.72;5079836;27;45307;-66
2021/10/06 10:48:02;;;;;;;;;1.75;1.75;;;;;20.67;49.80;101747.72;5080521;27;46192;-62
2021/10/06 10:50:57;;;;;;;;;4.50;2.00;;;;;20.39;51.06;101747.41;5079101;28;45483;-66
2021/10/06 10:54:01;;;;;;;;;1.00;1.00;;;;;20.14;49.43;101742.56;5082895;27;45453;-64
2021/10/06 10:56:40;;;;;;;;;0.25;0.25;;;;;20.34;49.82;101737.97;5068919;28;45390;-64
2021/10/06 10:59:11;;;;;;;;;3.00;3.00;;;;;20.14;50.19;101734.66;5078322;28;46230;-65
2021/10/06 11:01:56;;;;;;;;;2.75;2.50;;;;;19.81;49.67;101742.47;5068671;28;45703;-66
2021/10/06 11:04:30;;;;;;;;;3.50;2.50;;;;;19.58;49.35;101741.00;5079427;28;45283;-65
2021/10/06 11:07:10;;;;;;;;;3.00;3.00;;;;;19.36;50.03;101735.88;5066567;27;45461;-66
2021/10/06 11:09:36;;;;;;;;;3.50;3.00;;;;;19.23;50.44;101740.06;5080726;27;45391;-61
2021/10/06 11:12:04;;;;;;;;;4.75;3.00;;;;;19.25;51.23;101738.19;5078742;28;45444;-62
2021/10/06 11:14:30;;;;;;;;;4.50;2.75;;;;;19.42;52.93;101746.13;5078683;27;45453;-60
2021/10/06 11:17:15;;;;;;;;;3.50;1.75;;;;;19.51;50.96;101744.84;5079794;27;45278;-61
2021/10/06 11:19:43;;;;;;;;;3.00;1.75;;;;;19.42;51.03;101754.03;5079508;27;45560;-61
2021/10/06 11:22:24;;;;;;;;;2.00;2.00;;;;;19.37;50.55;101741.06;5075926;27;45307;-61